sensor_id;sensor_type;location;lat;lon;timestamp;pressure;altitude;pressure_sealevel;temperature;humidity
11888;BME280;6003;42.756;23.130;2023-01-29T00:01:05;152130.69;;;-1.10;100.00
11888;BME280;6003;42.756;23.130;2023-01-29T00:03:33;152107.16;;;-1.19;100.00
11888;BME280;6003;42.756;23.130;2023-01-29T00:06:04;152158.19;;;-0.99;100.00
11888;BME280;6003;42.756;23.130;2023-01-29T00:08:32;152175.19;;;-0.93;100.00
11888;BME280;6003;42.756;23.130;2023-01-29T00:11:00;152190.91;;;-0.86;100.00
11888;BME280;6003;42.756;23.130;2023-01-29T00:13:27;152179.16;;;-0.91;100.00
11888;BME280;6003;42.756;23.130;2023-01-29T00:15:54;152179.16;;;-0.91;100.00
11888;BME280;6003;42.756;23.130;2023-01-29T00:18:21;152206.66;;;-0.80;100.00
11888;BME280;6003;42.756;23.130;2023-01-29T00:20:49;152192.25;;;-0.86;100.00
11888;BME280;6003;42.756;23.130;2023-01-29T00:23:16;152177.84;;;-0.92;100.00
11888;BME280;6003;42.756;23.130;2023-01-29T00:25:44;152177.84;;;-0.92;100.00
11888;BME280;6003;42.756;23.130;2023-01-29T00:28:11;152164.75;;;-0.97;100.00
11888;BME280;6003;42.756;23.130;2023-01-29T00:30:38;152154.25;;;-1.01;100.00
11888;BME280;6003;42.756;23.130;2023-01-29T00:33:04;152164.75;;;-0.97;100.00
11888;BME280;6003;42.756;23.130;2023-01-29T00:35:32;152143.81;;;-1.05;100.00
11888;BME280;6003;42.756;23.130;2023-01-29T00:38:11;152162.16;;;-0.98;100.00
11888;BME280;6003;42.756;23.130;2023-01-29T00:40:39;152146.41;;;-1.04;100.00
11888;BME280;6003;42.756;23.130;2023-01-29T00:43:23;152138.56;;;-1.07;100.00
11888;BME280;6003;42.756;23.130;2023-01-29T00:46:07;152149.06;;;-1.03;100.00
11888;BME280;6003;42.756;23.130;2023-01-29T00:48:35;152141.19;;;-1.06;100.00
11888;BME280;6003;42.756;23.130;2023-01-29T00:51:02;152130.69;;;-1.10;100.00
11888;BME280;6003;42.756;23.130;2023-01-29T00:53:30;152128.09;;;-1.11;100.00
11888;BME280;6003;42.756;23.130;2023-01-29T00:55:58;152108.44;;;-1.19;100.00
11888;BME280;6003;42.756;23.130;2023-01-29T00:58:24;152083.59;;;-1.28;100.00
11888;BME280;6003;42.756;23.130;2023-01-29T01:00:53;152101.91;;;-1.21;100.00
11888;BME280;6003;42.756;23.130;2023-01-29T01:03:21;152096.72;;;-1.23;100.00
11888;BME280;6003;42.756;23.130;2023-01-29T01:05:46;152113.69;;;-1.17;100.00
11888;BME280;6003;42.756;23.130;2023-01-29T01:08:13;152098.00;;;-1.23;100.00
11888;BME280;6003;42.756;23.130;2023-01-29T01:11:00;152126.81;;;-1.11;100.00
11888;BME280;6003;42.756;23.130;2023-01-29T01:13:28;152141.19;;;-1.06;100.00
11888;BME280;6003;42.756;23.130;2023-01-29T01:15:54;152146.41;;;-1.04;100.00
11888;BME280;6003;42.756;23.130;2023-01-29T01:18:22;152142.50;;;-1.05;100.00
11888;BME280;6003;42.756;23.130;2023-01-29T01:20:48;152125.50;;;-1.12;100.00
11888;BME280;6003;42.756;23.130;2023-01-29T01:23:16;152139.91;;;-1.06;100.00
11888;BME280;6003;42.756;23.130;2023-01-29T01:25:43;152126.81;;;-1.11;100.00
11888;BME280;6003;42.756;23.130;2023-01-29T01:28:11;152141.19;;;-1.06;100.00
11888;BME280;6003;42.756;23.130;2023-01-29T01:30:38;152113.69;;;-1.17;100.00
11888;BME280;6003;42.756;23.130;2023-01-29T01:33:05;152101.91;;;-1.21;100.00
11888;BME280;6003;42.756;23.130;2023-01-29T01:35:32;152104.56;;;-1.20;100.00
11888;BME280;6003;42.756;23.130;2023-01-29T01:38:11;152094.06;;;-1.24;100.00
11888;BME280;6003;42.756;23.130;2023-01-29T01:40:43;152099.31;;;-1.22;100.00
11888;BME280;6003;42.756;23.130;2023-01-29T01:43:12;152108.44;;;-1.19;100.00
11888;BME280;6003;42.756;23.130;2023-01-29T01:45:38;152101.91;;;-1.21;100.00
11888;BME280;6003;42.756;23.130;2023-01-29T01:48:09;152101.91;;;-1.21;100.00
11888;BME280;6003;42.756;23.130;2023-01-29T01:50:41;152078.34;;;-1.30;100.00
11888;BME280;6003;42.756;23.130;2023-01-29T01:53:11;152070.50;;;-1.33;100.00
11888;BME280;6003;42.756;23.130;2023-01-29T01:55:42;152095.34;;;-1.24;100.00
11888;BME280;6003;42.756;23.130;2023-01-29T01:58:14;152112.41;;;-1.17;100.00
11888;BME280;6003;42.756;23.130;2023-01-29T02:00:43;152088.84;;;-1.26;100.00
11888;BME280;6003;42.756;23.130;2023-01-29T02:03:11;152087.50;;;-1.27;100.00
11888;BME280;6003;42.756;23.130;2023-01-29T02:05:57;152101.91;;;-1.21;100.00
11888;BME280;6003;42.756;23.130;2023-01-29T02:08:48;152098.00;;;-1.23;100.00
11888;BME280;6003;42.756;23.130;2023-01-29T02:11:35;152107.16;;;-1.19;100.00
11888;BME280;6003;42.756;23.130;2023-01-29T02:14:03;152109.75;;;-1.18;100.00
11888;BME280;6003;42.756;23.130;2023-01-29T02:16:32;152113.69;;;-1.17;100.00
11888;BME280;6003;42.756;23.130;2023-01-29T02:18:59;152120.25;;;-1.14;100.00
11888;BME280;6003;42.756;23.130;2023-01-29T02:21:40;152118.97;;;-1.15;100.00
11888;BME280;6003;42.756;23.130;2023-01-29T02:27:20;152141.19;;;-1.06;100.00
11888;BME280;6003;42.756;23.130;2023-01-29T02:30:00;152137.25;;;-1.07;100.00
11888;BME280;6003;42.756;23.130;2023-01-29T02:32:33;152121.56;;;-1.14;100.00
11888;BME280;6003;42.756;23.130;2023-01-29T02:35:10;152130.69;;;-1.10;100.00
11888;BME280;6003;42.756;23.130;2023-01-29T02:38:00;152135.94;;;-1.08;100.00
11888;BME280;6003;42.756;23.130;2023-01-29T02:40:31;152125.50;;;-1.12;100.00
11888;BME280;6003;42.756;23.130;2023-01-29T02:43:07;152126.81;;;-1.11;100.00
11888;BME280;6003;42.756;23.130;2023-01-29T02:45:45;152134.66;;;-1.08;100.00
11888;BME280;6003;42.756;23.130;2023-01-29T02:48:19;152130.69;;;-1.10;100.00
11888;BME280;6003;42.756;23.130;2023-01-29T02:50:52;152122.84;;;-1.13;100.00
11888;BME280;6003;42.756;23.130;2023-01-29T02:53:26;152113.69;;;-1.17;100.00
11888;BME280;6003;42.756;23.130;2023-01-29T02:55:59;152109.75;;;-1.18;100.00
11888;BME280;6003;42.756;23.130;2023-01-29T02:58:44;152104.56;;;-1.20;100.00
11888;BME280;6003;42.756;23.130;2023-01-29T03:01:15;152096.72;;;-1.23;100.00
11888;BME280;6003;42.756;23.130;2023-01-29T03:03:46;152115.00;;;-1.16;100.00
11888;BME280;6003;42.756;23.130;2023-01-29T03:06:17;152107.16;;;-1.19;100.00
11888;BME280;6003;42.756;23.130;2023-01-29T03:08:49;152088.84;;;-1.26;100.00
11888;BME280;6003;42.756;23.130;2023-01-29T03:11:20;152091.47;;;-1.25;100.00
11888;BME280;6003;42.756;23.130;2023-01-29T03:13:49;152101.91;;;-1.21;100.00
11888;BME280;6003;42.756;23.130;2023-01-29T03:16:23;152088.84;;;-1.26;100.00
11888;BME280;6003;42.756;23.130;2023-01-29T03:18:54;152094.06;;;-1.24;100.00
11888;BME280;6003;42.756;23.130;2023-01-29T03:21:27;152105.84;;;-1.20;100.00
11888;BME280;6003;42.756;23.130;2023-01-29T03:24:14;152096.72;;;-1.23;100.00
11888;BME280;6003;42.756;23.130;2023-01-29T03:27:01;152096.72;;;-1.23;100.00
11888;BME280;6003;42.756;23.130;2023-01-29T03:29:47;152100.59;;;-1.22;100.00
11888;BME280;6003;42.756;23.130;2023-01-29T03:32:35;152082.31;;;-1.29;100.00
11888;BME280;6003;42.756;23.130;2023-01-29T03:35:04;152070.50;;;-1.33;100.00
11888;BME280;6003;42.756;23.130;2023-01-29T03:37:36;152075.75;;;-1.31;100.00
11888;BME280;6003;42.756;23.130;2023-01-29T03:40:07;152078.34;;;-1.30;100.00
11888;BME280;6003;42.756;23.130;2023-01-29T03:42:48;152065.25;;;-1.36;100.00
11888;BME280;6003;42.756;23.130;2023-01-29T03:45:19;152066.59;;;-1.35;100.00
11888;BME280;6003;42.756;23.130;2023-01-29T03:47:52;152077.06;;;-1.31;100.00
11888;BME280;6003;42.756;23.130;2023-01-29T03:50:33;152065.25;;;-1.36;100.00
11888;BME280;6003;42.756;23.130;2023-01-29T03:53:08;152044.38;;;-1.44;100.00
11888;BME280;6003;42.756;23.130;2023-01-29T03:55:42;152046.97;;;-1.43;100.00
11888;BME280;6003;42.756;23.130;2023-01-29T03:58:19;152053.50;;;-1.40;100.00
11888;BME280;6003;42.756;23.130;2023-01-29T04:00:52;152065.25;;;-1.36;100.00
11888;BME280;6003;42.756;23.130;2023-01-29T04:03:27;152060.06;;;-1.38;100.00
11888;BME280;6003;42.756;23.130;2023-01-29T04:06:02;152079.66;;;-1.30;100.00
11888;BME280;6003;42.756;23.130;2023-01-29T04:08:47;152083.59;;;-1.28;100.00
11888;BME280;6003;42.756;23.130;2023-01-29T04:11:19;152086.22;;;-1.27;100.00
11888;BME280;6003;42.756;23.130;2023-01-29T04:13:46;152062.66;;;-1.37;100.00
11888;BME280;6003;42.756;23.130;2023-01-29T04:16:17;152079.66;;;-1.30;100.00
11888;BME280;6003;42.756;23.130;2023-01-29T04:18:47;152092.75;;;-1.25;100.00
11888;BME280;6003;42.756;23.130;2023-01-29T04:21:15;152101.91;;;-1.21;100.00
11888;BME280;6003;42.756;23.130;2023-01-29T04:23:42;152099.31;;;-1.22;100.00
11888;BME280;6003;42.756;23.130;2023-01-29T04:26:23;152073.09;;;-1.32;100.00
11888;BME280;6003;42.756;23.130;2023-01-29T04:29:01;152060.06;;;-1.38;100.00
11888;BME280;6003;42.756;23.130;2023-01-29T04:31:34;152060.06;;;-1.38;100.00
11888;BME280;6003;42.756;23.130;2023-01-29T04:34:14;152046.97;;;-1.43;100.00
11888;BME280;6003;42.756;23.130;2023-01-29T04:36:53;152054.81;;;-1.40;100.00
11888;BME280;6003;42.756;23.130;2023-01-29T04:39:24;152041.72;;;-1.45;100.00
11888;BME280;6003;42.756;23.130;2023-01-29T04:42:03;152043.03;;;-1.44;100.00
11888;BME280;6003;42.756;23.130;2023-01-29T04:44:37;152045.66;;;-1.43;100.00
11888;BME280;6003;42.756;23.130;2023-01-29T04:47:16;152043.03;;;-1.44;100.00
11888;BME280;6003;42.756;23.130;2023-01-29T04:49:49;152037.81;;;-1.46;100.00
11888;BME280;6003;42.756;23.130;2023-01-29T04:52:23;152043.03;;;-1.44;100.00
11888;BME280;6003;42.756;23.130;2023-01-29T04:55:02;152043.03;;;-1.44;100.00
11888;BME280;6003;42.756;23.130;2023-01-29T04:57:33;152050.88;;;-1.41;100.00
11888;BME280;6003;42.756;23.130;2023-01-29T05:00:07;152054.81;;;-1.40;100.00
11888;BME280;6003;42.756;23.130;2023-01-29T05:02:39;152054.81;;;-1.40;100.00
11888;BME280;6003;42.756;23.130;2023-01-29T05:05:09;152041.72;;;-1.45;100.00
11888;BME280;6003;42.756;23.130;2023-01-29T05:07:38;152040.41;;;-1.45;100.00
11888;BME280;6003;42.756;23.130;2023-01-29T05:10:09;152049.56;;;-1.42;100.00
11888;BME280;6003;42.756;23.130;2023-01-29T05:12:37;152049.56;;;-1.42;100.00
11888;BME280;6003;42.756;23.130;2023-01-29T05:15:09;152033.88;;;-1.48;100.00
11888;BME280;6003;42.756;23.130;2023-01-29T05:17:37;152033.88;;;-1.48;100.00
11888;BME280;6003;42.756;23.130;2023-01-29T05:20:05;152033.88;;;-1.48;100.00
11888;BME280;6003;42.756;23.130;2023-01-29T05:22:36;152053.50;;;-1.40;100.00
11888;BME280;6003;42.756;23.130;2023-01-29T05:25:17;152056.13;;;-1.39;100.00
11888;BME280;6003;42.756;23.130;2023-01-29T05:31:07;152054.81;;;-1.40;100.00
11888;BME280;6003;42.756;23.130;2023-01-29T05:33:34;152058.75;;;-1.38;100.00
11888;BME280;6003;42.756;23.130;2023-01-29T05:36:01;152057.41;;;-1.39;100.00
11888;BME280;6003;42.756;23.130;2023-01-29T05:38:29;152061.38;;;-1.37;100.00
11888;BME280;6003;42.756;23.130;2023-01-29T05:40:57;152066.59;;;-1.35;100.00
11888;BME280;6003;42.756;23.130;2023-01-29T05:43:24;152071.81;;;-1.33;100.00
11888;BME280;6003;42.756;23.130;2023-01-29T05:45:52;152077.06;;;-1.31;100.00
11888;BME280;6003;42.756;23.130;2023-01-29T05:48:19;152079.66;;;-1.30;100.00
11888;BME280;6003;42.756;23.130;2023-01-29T05:50:46;152077.06;;;-1.31;100.00
11888;BME280;6003;42.756;23.130;2023-01-29T05:53:13;152082.31;;;-1.29;100.00
11888;BME280;6003;42.756;23.130;2023-01-29T05:55:43;152075.75;;;-1.31;100.00
11888;BME280;6003;42.756;23.130;2023-01-29T05:58:10;152088.84;;;-1.26;100.00
11888;BME280;6003;42.756;23.130;2023-01-29T06:00:37;152070.50;;;-1.33;100.00
11888;BME280;6003;42.756;23.130;2023-01-29T06:03:03;152088.84;;;-1.26;100.00
11888;BME280;6003;42.756;23.130;2023-01-29T06:05:30;152094.06;;;-1.24;100.00
11888;BME280;6003;42.756;23.130;2023-01-29T06:07:57;152099.31;;;-1.22;100.00
11888;BME280;6003;42.756;23.130;2023-01-29T06:10:24;152105.84;;;-1.20;100.00
11888;BME280;6003;42.756;23.130;2023-01-29T06:12:52;152086.22;;;-1.27;100.00
11888;BME280;6003;42.756;23.130;2023-01-29T06:15:19;152107.16;;;-1.19;100.00
11888;BME280;6003;42.756;23.130;2023-01-29T06:17:45;152099.31;;;-1.22;100.00
11888;BME280;6003;42.756;23.130;2023-01-29T06:20:12;152098.00;;;-1.23;100.00
11888;BME280;6003;42.756;23.130;2023-01-29T06:22:39;152096.72;;;-1.23;100.00
11888;BME280;6003;42.756;23.130;2023-01-29T06:25:07;152099.31;;;-1.22;100.00
11888;BME280;6003;42.756;23.130;2023-01-29T06:27:34;152108.44;;;-1.19;100.00
11888;BME280;6003;42.756;23.130;2023-01-29T06:30:03;152088.84;;;-1.26;100.00
11888;BME280;6003;42.756;23.130;2023-01-29T06:32:30;152115.00;;;-1.16;100.00
11888;BME280;6003;42.756;23.130;2023-01-29T06:34:57;152120.25;;;-1.14;100.00
11888;BME280;6003;42.756;23.130;2023-01-29T06:37:24;152121.56;;;-1.14;100.00
11888;BME280;6003;42.756;23.130;2023-01-29T06:39:51;152134.66;;;-1.08;100.00
11888;BME280;6003;42.756;23.130;2023-01-29T06:42:18;152151.66;;;-1.02;100.00
11888;BME280;6003;42.756;23.130;2023-01-29T06:44:52;152145.09;;;-1.04;100.00
11888;BME280;6003;42.756;23.130;2023-01-29T06:47:20;152159.50;;;-0.99;100.00
11888;BME280;6003;42.756;23.130;2023-01-29T06:49:46;152156.91;;;-1.00;100.00
11888;BME280;6003;42.756;23.130;2023-01-29T06:52:13;152184.41;;;-0.89;100.00
11888;BME280;6003;42.756;23.130;2023-01-29T06:54:40;152175.19;;;-0.93;100.00
11888;BME280;6003;42.756;23.130;2023-01-29T06:57:07;152197.47;;;-0.84;100.00
11888;BME280;6003;42.756;23.130;2023-01-29T06:59:34;152207.97;;;-0.80;100.00
11888;BME280;6003;42.756;23.130;2023-01-29T07:02:02;152198.81;;;-0.83;100.00
11888;BME280;6003;42.756;23.130;2023-01-29T07:04:30;152207.97;;;-0.80;100.00
11888;BME280;6003;42.756;23.130;2023-01-29T07:06:58;152204.00;;;-0.81;100.00
11888;BME280;6003;42.756;23.130;2023-01-29T07:09:24;152224.97;;;-0.73;100.00
11888;BME280;6003;42.756;23.130;2023-01-29T07:11:51;152248.53;;;-0.64;100.00
11888;BME280;6003;42.756;23.130;2023-01-29T07:14:18;152245.91;;;-0.65;100.00
11888;BME280;6003;42.756;23.130;2023-01-29T07:16:45;152265.56;;;-0.57;100.00
11888;BME280;6003;42.756;23.130;2023-01-29T07:19:12;152283.88;;;-0.50;100.00
11888;BME280;6003;42.756;23.130;2023-01-29T07:21:41;152283.88;;;-0.50;100.00
11888;BME280;6003;42.756;23.130;2023-01-29T07:24:08;152280.00;;;-0.52;100.00
11888;BME280;6003;42.756;23.130;2023-01-29T07:26:34;152295.69;;;-0.46;100.00
11888;BME280;6003;42.756;23.130;2023-01-29T07:29:03;152293.03;;;-0.47;100.00
11888;BME280;6003;42.756;23.130;2023-01-29T07:31:30;152277.34;;;-0.53;100.00
11888;BME280;6003;42.756;23.130;2023-01-29T07:33:57;152256.38;;;-0.61;100.00
11888;BME280;6003;42.756;23.130;2023-01-29T07:36:23;152272.09;;;-0.55;100.00
11888;BME280;6003;42.756;23.130;2023-01-29T07:38:52;152266.88;;;-0.57;100.00
11888;BME280;6003;42.756;23.130;2023-01-29T07:41:19;152252.47;;;-0.62;100.00
11888;BME280;6003;42.756;23.130;2023-01-29T07:43:46;152243.31;;;-0.66;100.00
11888;BME280;6003;42.756;23.130;2023-01-29T07:46:13;152261.63;;;-0.59;100.00
11888;BME280;6003;42.756;23.130;2023-01-29T07:48:40;152257.72;;;-0.60;100.00
11888;BME280;6003;42.756;23.130;2023-01-29T07:51:07;152274.72;;;-0.54;100.00
11888;BME280;6003;42.756;23.130;2023-01-29T07:53:34;152289.16;;;-0.48;100.00
11888;BME280;6003;42.756;23.130;2023-01-29T07:56:03;152295.69;;;-0.46;100.00
11888;BME280;6003;42.756;23.130;2023-01-29T07:58:29;152324.50;;;-0.34;100.00
11888;BME280;6003;42.756;23.130;2023-01-29T08:00:56;152327.13;;;-0.33;100.00
11888;BME280;6003;42.756;23.130;2023-01-29T08:03:23;152338.91;;;-0.29;100.00
11888;BME280;6003;42.756;23.130;2023-01-29T08:05:50;152324.50;;;-0.34;100.00
11888;BME280;6003;42.756;23.130;2023-01-29T08:08:17;152319.25;;;-0.36;100.00
11888;BME280;6003;42.756;23.130;2023-01-29T08:10:43;152337.56;;;-0.29;100.00
11888;BME280;6003;42.756;23.130;2023-01-29T08:13:12;152348.06;;;-0.25;100.00
11888;BME280;6003;42.756;23.130;2023-01-29T08:15:41;152362.50;;;-0.19;100.00
11888;BME280;6003;42.756;23.130;2023-01-29T08:18:09;152371.66;;;-0.16;100.00
11888;BME280;6003;42.756;23.130;2023-01-29T08:20:36;152371.66;;;-0.16;100.00
11888;BME280;6003;42.756;23.130;2023-01-29T08:23:04;152363.78;;;-0.19;100.00
11888;BME280;6003;42.756;23.130;2023-01-29T08:25:32;152388.66;;;-0.09;100.00
11888;BME280;6003;42.756;23.130;2023-01-29T08:27:59;152382.09;;;-0.12;100.00
11888;BME280;6003;42.756;23.130;2023-01-29T08:30:30;152374.25;;;-0.15;100.00
11888;BME280;6003;42.756;23.130;2023-01-29T08:32:57;152376.91;;;-0.14;100.00
11888;BME280;6003;42.756;23.130;2023-01-29T08:35:25;152380.81;;;-0.12;100.00
11888;BME280;6003;42.756;23.130;2023-01-29T08:37:52;152384.75;;;-0.11;100.00
11888;BME280;6003;42.756;23.130;2023-01-29T08:40:20;152395.22;;;-0.07;100.00
11888;BME280;6003;42.756;23.130;2023-01-29T08:42:47;152416.19;;;0.02;100.00
11888;BME280;6003;42.756;23.130;2023-01-29T08:45:14;152387.34;;;-0.10;100.00
11888;BME280;6003;42.756;23.130;2023-01-29T08:47:45;152410.94;;;-0.01;100.00
11888;BME280;6003;42.756;23.130;2023-01-29T08:50:12;152416.19;;;0.02;100.00
11888;BME280;6003;42.756;23.130;2023-01-29T08:52:39;152418.78;;;0.03;100.00
11888;BME280;6003;42.756;23.130;2023-01-29T08:55:07;152429.31;;;0.07;100.00
11888;BME280;6003;42.756;23.130;2023-01-29T08:57:40;152424.03;;;0.05;100.00
11888;BME280;6003;42.756;23.130;2023-01-29T09:00:08;152428.00;;;0.06;100.00
11888;BME280;6003;42.756;23.130;2023-01-29T09:02:35;152433.19;;;0.08;100.00
11888;BME280;6003;42.756;23.130;2023-01-29T09:05:05;152437.16;;;0.10;100.00
11888;BME280;6003;42.756;23.130;2023-01-29T09:07:32;152466.00;;;0.21;100.00
11888;BME280;6003;42.756;23.130;2023-01-29T09:09:59;152455.47;;;0.17;100.00
11888;BME280;6003;42.756;23.130;2023-01-29T09:12:26;152450.28;;;0.15;100.00
11888;BME280;6003;42.756;23.130;2023-01-29T09:14:53;152476.44;;;0.25;100.00
11888;BME280;6003;42.756;23.130;2023-01-29T09:17:20;152511.84;;;0.39;100.00
11888;BME280;6003;42.756;23.130;2023-01-29T09:19:47;152500.03;;;0.34;100.00
11888;BME280;6003;42.756;23.130;2023-01-29T09:22:15;152443.72;;;0.12;100.00
11888;BME280;6003;42.756;23.130;2023-01-29T09:24:42;152473.84;;;0.24;100.00
11888;BME280;6003;42.756;23.130;2023-01-29T09:27:08;152476.44;;;0.25;100.00
11888;BME280;6003;42.756;23.130;2023-01-29T09:29:36;152471.19;;;0.23;100.00
11888;BME280;6003;42.756;23.130;2023-01-29T09:32:03;152443.72;;;0.12;100.00
11888;BME280;6003;42.756;23.130;2023-01-29T09:34:30;152446.31;;;0.13;100.00
11888;BME280;6003;42.756;23.130;2023-01-29T09:36:57;152435.84;;;0.09;100.00
11888;BME280;6003;42.756;23.130;2023-01-29T09:39:25;152428.00;;;0.06;100.00
11888;BME280;6003;42.756;23.130;2023-01-29T09:41:56;152410.94;;;-0.01;100.00
11888;BME280;6003;42.756;23.130;2023-01-29T09:44:44;152393.91;;;-0.07;100.00
11888;BME280;6003;42.756;23.130;2023-01-29T09:47:14;152407.03;;;-0.02;100.00
11888;BME280;6003;42.756;23.130;2023-01-29T09:49:46;152395.22;;;-0.07;100.00
11888;BME280;6003;42.756;23.130;2023-01-29T09:52:16;152382.09;;;-0.12;100.00
11888;BME280;6003;42.756;23.130;2023-01-29T09:54:53;152375.59;;;-0.14;100.00
11888;BME280;6003;42.756;23.130;2023-01-29T09:57:24;152387.34;;;-0.10;100.00
11888;BME280;6003;42.756;23.130;2023-01-29T09:59:53;152379.50;;;-0.13;100.00
11888;BME280;6003;42.756;23.130;2023-01-29T10:02:39;152407.03;;;-0.02;100.00
11888;BME280;6003;42.756;23.130;2023-01-29T10:05:23;152399.16;;;-0.05;100.00
11888;BME280;6003;42.756;23.130;2023-01-29T10:08:25;152429.31;;;0.07;100.00
11888;BME280;6003;42.756;23.130;2023-01-29T10:11:04;152435.84;;;0.09;100.00
11888;BME280;6003;42.756;23.130;2023-01-29T10:13:42;152401.78;;;-0.04;100.00
11888;BME280;6003;42.756;23.130;2023-01-29T10:16:20;152387.34;;;-0.10;100.00
11888;BME280;6003;42.756;23.130;2023-01-29T10:19:06;152447.63;;;0.14;100.00
11888;BME280;6003;42.756;23.130;2023-01-29T10:21:58;152501.38;;;0.35;100.00
11888;BME280;6003;42.756;23.130;2023-01-29T10:24:36;152506.59;;;0.37;100.00
11888;BME280;6003;42.756;23.130;2023-01-29T10:27:11;152501.38;;;0.35;100.00
11888;BME280;6003;42.756;23.130;2023-01-29T10:29:40;152511.84;;;0.39;100.00
11888;BME280;6003;42.756;23.130;2023-01-29T10:32:12;152505.28;;;0.36;100.00
11888;BME280;6003;42.756;23.130;2023-01-29T10:34:43;152560.34;;;0.58;100.00
11888;BME280;6003;42.756;23.130;2023-01-29T10:37:15;152536.72;;;0.49;100.00
11888;BME280;6003;42.756;23.130;2023-01-29T10:39:44;152532.81;;;0.47;100.00
11888;BME280;6003;42.756;23.130;2023-01-29T10:42:27;152564.25;;;0.59;100.00
11888;BME280;6003;42.756;23.130;2023-01-29T10:45:06;152561.66;;;0.58;100.00
11888;BME280;6003;42.756;23.130;2023-01-29T10:47:56;152560.34;;;0.58;100.00
11888;BME280;6003;42.756;23.130;2023-01-29T10:50:39;152560.34;;;0.58;100.00
11888;BME280;6003;42.756;23.130;2023-01-29T10:56:25;152578.69;;;0.65;100.00
11888;BME280;6003;42.756;23.130;2023-01-29T10:59:01;152544.59;;;0.52;100.00
11888;BME280;6003;42.756;23.130;2023-01-29T11:01:30;152526.25;;;0.44;100.00
11888;BME280;6003;42.756;23.130;2023-01-29T11:04:00;152576.09;;;0.64;100.00
11888;BME280;6003;42.756;23.130;2023-01-29T11:06:29;152585.25;;;0.67;100.00
11888;BME280;6003;42.756;23.130;2023-01-29T11:09:03;152589.16;;;0.69;100.00
11888;BME280;6003;42.756;23.130;2023-01-29T11:11:36;152560.34;;;0.58;100.00
11888;BME280;6003;42.756;23.130;2023-01-29T11:14:11;152594.41;;;0.71;100.00
11888;BME280;6003;42.756;23.130;2023-01-29T11:16:40;152625.88;;;0.83;100.00
11888;BME280;6003;42.756;23.130;2023-01-29T11:19:07;152624.56;;;0.83;100.00
11888;BME280;6003;42.756;23.130;2023-01-29T11:21:50;152652.09;;;0.94;100.00
11888;BME280;6003;42.756;23.130;2023-01-29T11:24:18;152633.78;;;0.86;100.00
11888;BME280;6003;42.756;23.130;2023-01-29T11:26:47;152637.69;;;0.88;100.00
11888;BME280;6003;42.756;23.130;2023-01-29T11:29:30;152652.09;;;0.94;100.00
11888;BME280;6003;42.756;23.130;2023-01-29T11:31:59;152645.53;;;0.91;100.00
11888;BME280;6003;42.756;23.130;2023-01-29T11:34:27;152618.00;;;0.80;100.00
11888;BME280;6003;42.756;23.130;2023-01-29T11:36:57;152654.72;;;0.95;100.00
11888;BME280;6003;42.756;23.130;2023-01-29T11:39:25;152683.56;;;1.06;100.00
11888;BME280;6003;42.756;23.130;2023-01-29T11:41:56;152701.94;;;1.13;99.99
11888;BME280;6003;42.756;23.130;2023-01-29T11:44:30;152684.88;;;1.06;99.52
11888;BME280;6003;42.756;23.130;2023-01-29T11:47:11;152730.81;;;1.24;99.84
11888;BME280;6003;42.756;23.130;2023-01-29T11:49:38;152718.97;;;1.20;99.17
11888;BME280;6003;42.756;23.130;2023-01-29T11:52:07;152776.72;;;1.42;98.98
11888;BME280;6003;42.756;23.130;2023-01-29T11:54:38;152774.09;;;1.41;98.36
11888;BME280;6003;42.756;23.130;2023-01-29T11:57:21;152806.88;;;1.54;98.21
11888;BME280;6003;42.756;23.130;2023-01-29T11:59:51;152799.00;;;1.51;97.51
11888;BME280;6003;42.756;23.130;2023-01-29T12:02:25;152778.00;;;1.43;97.84
11888;BME280;6003;42.756;23.130;2023-01-29T12:04:58;152810.84;;;1.55;97.41
11888;BME280;6003;42.756;23.130;2023-01-29T12:07:26;152839.66;;;1.67;97.42
11888;BME280;6003;42.756;23.130;2023-01-29T12:09:55;152809.47;;;1.55;97.47
11888;BME280;6003;42.756;23.130;2023-01-29T12:12:34;152822.59;;;1.60;97.11
11888;BME280;6003;42.756;23.130;2023-01-29T12:15:15;152820.00;;;1.59;97.83
11888;BME280;6003;42.756;23.130;2023-01-29T12:17:46;152797.69;;;1.50;97.61
11888;BME280;6003;42.756;23.130;2023-01-29T12:20:21;152799.00;;;1.51;96.77
11888;BME280;6003;42.756;23.130;2023-01-29T12:22:56;152787.19;;;1.46;97.43
11888;BME280;6003;42.756;23.130;2023-01-29T12:25:42;152764.88;;;1.38;96.95
11888;BME280;6003;42.756;23.130;2023-01-29T12:28:20;152762.28;;;1.37;97.17
11888;BME280;6003;42.756;23.130;2023-01-29T12:30:54;152734.72;;;1.26;98.10
11888;BME280;6003;42.756;23.130;2023-01-29T12:33:32;152799.00;;;1.51;98.84
11888;BME280;6003;42.756;23.130;2023-01-29T12:36:09;152780.63;;;1.44;97.73
11888;BME280;6003;42.756;23.130;2023-01-29T12:38:38;152720.28;;;1.20;97.35
11888;BME280;6003;42.756;23.130;2023-01-29T12:41:10;152698.00;;;1.11;98.15
11888;BME280;6003;42.756;23.130;2023-01-29T12:43:48;152720.28;;;1.20;98.60
11888;BME280;6003;42.756;23.130;2023-01-29T12:46:21;152686.22;;;1.07;97.49
11888;BME280;6003;42.756;23.130;2023-01-29T12:48:51;152696.69;;;1.11;98.65
11888;BME280;6003;42.756;23.130;2023-01-29T12:51:22;152703.25;;;1.13;98.43
11888;BME280;6003;42.756;23.130;2023-01-29T12:53:54;152722.94;;;1.21;98.64
11888;BME280;6003;42.756;23.130;2023-01-29T12:56:28;152703.25;;;1.13;97.79
11888;BME280;6003;42.756;23.130;2023-01-29T12:58:58;152775.41;;;1.42;97.72
11888;BME280;6003;42.756;23.130;2023-01-29T13:01:30;152817.34;;;1.58;97.21
11888;BME280;6003;42.756;23.130;2023-01-29T13:04:01;152791.13;;;1.48;96.53
11888;BME280;6003;42.756;23.130;2023-01-29T13:06:33;152783.28;;;1.45;95.88
11888;BME280;6003;42.756;23.130;2023-01-29T13:09:03;152795.03;;;1.49;95.71
11888;BME280;6003;42.756;23.130;2023-01-29T13:11:35;152778.00;;;1.43;96.49
11888;BME280;6003;42.756;23.130;2023-01-29T13:14:07;152764.88;;;1.38;96.08
11888;BME280;6003;42.756;23.130;2023-01-29T13:16:37;152754.41;;;1.33;97.13